No particular awareness of the weather is required.    There are no Weather-warnings


Meteo18 Weather Cam more information Meteo18 Weather Cam


Thunder radar more information blitzortung!


Rain radar more information rain snow radar


Visit our other weather sites:

Template documentation
and downloads

And another site



Weather Underground History page Text

Daily Summary for February 14, 2017 Units:  English    Metric   Both
« Previous Day
Next Day »
Daily Weekly Monthly Yearly Custom
  High: Low: Average:
Temperature: TemperatureC °F 6.9 °F 9.7 °F
Dew Point: DewpointC °F 4.4 °F 6.5 °F
Humidity: Humidity % 69 % 80 %
Wind Speed: WindSpeedKMH mph 0.0 mph 1.5 mph
Wind Gust: WindSpeedGustKMH mph - -
Wind:- - SE
Pressure: PressurehPa in 1019.2 in -
Precipitation: 4.8 in    
Historical Graphs
 
 
Tabular Data for February 14, 2017
Time Temperature Dew Point Pressure Wind Wind Speed Wind Gust Humidity Rainfall Rate (Hourly)
TemperatureC °F DewpointC °F PressurehPa in Calm     Humidity % HourlyPrecipMM in
00:02 9.6 °F 4.4 °F 1019.2 in ESE 3.2 mph 8.0 mph 70 % 0.0 in
00:07 9.7 °F 4.5 °F 1019.2 in East 1.6 mph 9.7 mph 70 % 0.0 in
00:12 9.8 °F 4.6 °F 1019.2 in ESE 4.8 mph 14.5 mph 70 % 0.0 in
00:17 9.8 °F 4.6 °F 1019.2 in East 8.0 mph 14.5 mph 70 % 0.0 in
00:22 9.6 °F 4.6 °F 1019.5 in ESE 8.0 mph 14.5 mph 71 % 0.0 in
00:32 9.5 °F 4.5 °F 1019.9 in SSE 3.2 mph 17.7 mph 71 % 0.0 in
00:42 9.5 °F 4.5 °F 1019.9 in SSW 4.8 mph 17.7 mph 71 % 0.0 in
00:47 9.4 °F 4.6 °F 1019.9 in SSE 3.2 mph 16.1 mph 72 % 0.0 in
00:52 9.3 °F 4.5 °F 1019.9 in ESE 6.4 mph 16.1 mph 72 % 0.0 in
01:02 9.3 °F 4.5 °F 1020.2 in South 4.8 mph 14.5 mph 72 % 0.0 in
01:07 9.3 °F 4.7 °F 1020.5 in SE 1.6 mph 14.5 mph 73 % 0.0 in
01:12 9.2 °F 4.8 °F 1020.5 in SSE 3.2 mph 14.5 mph 74 % 0.0 in
01:17 8.9 °F 4.7 °F 1020.5 in SW 6.4 mph 14.5 mph 75 % 0.0 in
01:22 8.9 °F 4.9 °F 1020.5 in SE 3.2 mph 12.9 mph 76 % 0.0 in
01:32 8.5 °F 4.9 °F 1020.9 in South 3.2 mph 12.9 mph 78 % 0.0 in
01:42 8.2 °F 5.0 °F 1020.9 in SSE 3.2 mph 19.3 mph 80 % 0.0 in
01:47 8.1 °F 5.0 °F 1020.9 in South 1.6 mph 11.3 mph 81 % 0.3 in
01:52 7.9 °F 5.0 °F 1020.9 in South 1.6 mph 8.0 mph 82 % 0.3 in
02:02 7.7 °F 5.0 °F 1021.2 in Calm   6.4 mph 83 % 0.3 in
02:12 7.7 °F 5.2 °F 1021.2 in Calm   3.2 mph 84 % 0.3 in
02:17 7.6 °F 5.1 °F 1021.2 in Calm   3.2 mph 84 % 0.5 in
02:22 7.5 °F 5.1 °F 1021.2 in Calm   3.2 mph 85 % 0.5 in
02:27 7.4 °F 5.2 °F 1021.2 in Calm   1.6 mph 86 % 0.5 in
02:32 7.4 °F 5.2 °F 1021.2 in Calm   1.6 mph 86 % 0.5 in
02:42 7.3 °F 5.3 °F 1021.2 in Calm   1.6 mph 87 % 0.3 in
02:47 7.3 °F 5.3 °F 1021.2 in NNE 3.2 mph 3.2 mph 87 % 0.5 in
02:52 7.3 °F 5.3 °F 1021.2 in NNE 1.6 mph 3.2 mph 87 % 0.5 in
02:57 7.2 °F 5.3 °F 1021.2 in NNE 1.6 mph 4.8 mph 88 % 0.5 in
03:07 7.1 °F 5.4 °F 1021.2 in Calm   1.6 mph 89 % 0.5 in
03:12 7.3 °F 5.3 °F 1021.2 in Calm   3.2 mph 87 % 0.5 in
03:17 7.3 °F 5.1 °F 1021.2 in Calm   3.2 mph 86 % 0.5 in
03:22 7.5 °F 5.3 °F 1021.2 in Calm   3.2 mph 86 % 0.5 in
03:32 7.4 °F 5.2 °F 1021.2 in Calm   1.6 mph 86 % 0.5 in
03:42 7.3 °F 5.3 °F 1021.2 in Calm     87 % 0.5 in
03:47 7.4 °F 5.4 °F 1021.2 in Calm     87 % 0.8 in
03:52 7.5 °F 5.3 °F 1021.2 in Calm     86 % 0.8 in
04:02 7.4 °F 5.4 °F 1021.2 in Calm     87 % 1.0 in
04:12 7.2 °F 5.5 °F 1020.9 in Calm     89 % 1.0 in
04:22 6.9 °F 5.5 °F 1020.9 in Calm     91 % 1.0 in
04:27 6.9 °F 5.7 °F 1020.9 in Calm     92 % 1.0 in
04:32 7.1 °F 5.9 °F 1020.9 in NE 1.6 mph   92 % 1.3 in
04:42 7.8 °F 5.9 °F 1020.9 in NE 4.8 mph 4.8 mph 88 % 0.8 in
04:47 8.5 °F 6.0 °F 1020.9 in ENE 4.8 mph 14.5 mph 84 % 0.5 in
04:52 8.9 °F 6.0 °F 1020.9 in East 4.8 mph 14.5 mph 82 % 0.5 in
04:57 9.1 °F 6.2 °F 1020.9 in East 1.6 mph 14.5 mph 82 % 0.5 in
05:02 9.1 °F 6.2 °F 1020.9 in East 6.4 mph 14.5 mph 82 % 0.5 in
05:12 9.1 °F 6.0 °F 1020.9 in Calm   12.9 mph 81 % 0.3 in
05:17 8.9 °F 6.0 °F 1021.2 in Calm   9.7 mph 82 % 0.3 in
05:22 8.6 °F 6.0 °F 1021.2 in WNW 1.6 mph 8.0 mph 84 % 0.3 in
05:32 8.2 °F 6.0 °F 1021.6 in Calm   3.2 mph 86 % 0.3 in
05:42 7.6 °F 6.1 °F 1021.6 in Calm   3.2 mph 90 % 0.0 in
05:47 7.6 °F 6.1 °F 1021.6 in Calm   3.2 mph 90 % 0.0 in
05:52 7.7 °F 6.0 °F 1021.6 in Calm   3.2 mph 89 % 0.0 in
05:57 7.9 °F 6.0 °F 1021.6 in Calm   3.2 mph 88 % 0.0 in
06:02 7.7 °F 6.0 °F 1021.6 in Calm   1.6 mph 89 % 0.0 in
06:12 7.9 °F 6.0 °F 1021.6 in Calm   3.2 mph 88 % 0.0 in
06:17 7.9 °F 5.9 °F 1021.6 in Calm   3.2 mph 87 % 0.0 in
06:22 8.0 °F 6.0 °F 1021.6 in Calm   3.2 mph 87 % 0.0 in
06:32 7.9 °F 5.9 °F 1021.6 in Calm   1.6 mph 87 % 0.0 in
06:42 8.2 °F 6.0 °F 1021.6 in Calm   1.6 mph 86 % 0.0 in
06:52 8.1 °F 6.1 °F 1021.9 in Calm   3.2 mph 87 % 0.0 in
07:02 8.2 °F 6.0 °F 1021.9 in Calm   3.2 mph 86 % 0.0 in
07:12 8.2 °F 6.0 °F 1022.2 in Calm   1.6 mph 86 % 0.0 in
07:17 8.1 °F 6.1 °F 1022.2 in Calm     87 % 0.0 in
07:22 8.0 °F 6.0 °F 1022.2 in Calm     87 % 0.0 in
07:27 8.0 °F 6.0 °F 1022.6 in Calm     87 % 0.0 in
07:32 7.9 °F 5.9 °F 1022.6 in Calm     87 % 0.0 in
07:42 7.9 °F 6.0 °F 1022.6 in Calm     88 % 0.3 in
07:52 7.8 °F 6.1 °F 1022.9 in WNW 1.6 mph   89 % 0.3 in
07:57 7.6 °F 6.1 °F 1022.9 in Calm   3.2 mph 90 % 0.5 in
08:02 7.6 °F 6.2 °F 1022.9 in Calm   3.2 mph 91 % 0.5 in
08:07 7.6 °F 6.1 °F 1023.2 in Calm   3.2 mph 90 % 0.5 in
08:12 7.5 °F 6.1 °F 1023.2 in West 1.6 mph 3.2 mph 91 % 0.5 in
08:17 7.6 °F 6.2 °F 1023.2 in WSW 1.6 mph 1.6 mph 91 % 0.8 in
08:22 7.7 °F 6.2 °F 1023.2 in Calm   1.6 mph 90 % 1.0 in
08:32 8.1 °F 6.2 °F 1023.6 in Calm   4.8 mph 88 % 0.8 in
08:37 8.1 °F 6.2 °F 1023.6 in ESE 1.6 mph 6.4 mph 88 % 1.0 in
08:42 8.1 °F 6.2 °F 1023.6 in East 1.6 mph 6.4 mph 88 % 1.0 in
08:47 8.1 °F 6.4 °F 1023.9 in East 1.6 mph 3.2 mph 89 % 0.8 in
08:52 8.1 °F 6.4 °F 1023.9 in Calm   3.2 mph 89 % 0.8 in
09:02 8.2 °F 6.3 °F 1023.9 in Calm   4.8 mph 88 % 0.8 in
09:12 8.2 °F 6.3 °F 1024.3 in SE 1.6 mph 4.8 mph 88 % 0.8 in
09:17 8.3 °F 6.4 °F 1024.3 in Calm   3.2 mph 88 % 0.5 in
09:22 8.3 °F 6.3 °F 1024.3 in Calm   3.2 mph 87 % 0.5 in
09:32 8.2 °F 6.5 °F 1024.3 in West 1.6 mph 3.2 mph 89 % 0.5 in
09:42 8.4 °F 6.5 °F 1024.3 in Calm   1.6 mph 88 % 0.5 in
09:52 8.4 °F 6.5 °F 1024.3 in Calm   1.6 mph 88 % 0.8 in
10:02 8.6 °F 6.7 °F 1024.3 in Calm   3.2 mph 88 % 0.8 in
10:12 8.6 °F 6.9 °F 1024.3 in Calm   4.8 mph 89 % 0.8 in
10:17 8.6 °F 6.9 °F 1024.3 in Calm     89 % 0.8 in
10:22 8.7 °F 7.0 °F 1024.6 in East 1.6 mph   89 % 0.5 in
10:32 8.8 °F 7.1 °F 1024.6 in Calm   1.6 mph 89 % 0.5 in
10:42 9.0 °F 7.1 °F 1024.9 in ESE 1.6 mph 3.2 mph 88 % 0.5 in
10:47 9.1 °F 7.2 °F 1024.9 in East 3.2 mph 6.4 mph 88 % 0.3 in
10:52 9.2 °F 7.1 °F 1024.9 in ESE 1.6 mph 6.4 mph 87 % 0.3 in
10:57 9.2 °F 7.1 °F 1024.9 in ESE 1.6 mph 8.0 mph 87 % 0.0 in
11:02 9.2 °F 7.1 °F 1024.9 in SE 4.8 mph 8.0 mph 87 % 0.0 in
11:12 9.3 °F 7.4 °F 1025.3 in ESE 4.8 mph 6.4 mph 88 % 0.3 in
11:17 9.4 °F 7.3 °F 1025.3 in Calm   8.0 mph 87 % 0.3 in
11:27 9.5 °F 7.4 °F 1025.3 in Calm   8.0 mph 87 % 0.5 in
11:32 9.4 °F 7.3 °F 1025.6 in Calm   8.0 mph 87 % 0.5 in
11:42 9.4 °F 7.2 °F 1025.6 in Calm   4.8 mph 86 % 0.5 in
11:52 9.4 °F 7.0 °F 1025.6 in ESE 1.6 mph 9.7 mph 85 % 0.5 in
11:57 9.4 °F 7.2 °F 1026.0 in Calm   9.7 mph 86 % 0.5 in
12:02 9.4 °F 7.2 °F 1026.0 in ESE 4.8 mph 9.7 mph 86 % 0.5 in
12:12 9.6 °F 7.2 °F 1026.0 in ESE 4.8 mph 9.7 mph 85 % 0.5 in
12:17 9.7 °F 7.1 °F 1025.6 in SE 4.8 mph 9.7 mph 84 % 0.5 in
12:22 9.8 °F 7.1 °F 1026.0 in SE 4.8 mph 9.7 mph 83 % 0.5 in
12:32 9.9 °F 7.0 °F 1026.0 in ESE 3.2 mph 11.3 mph 82 % 0.3 in
12:37 9.9 °F 7.0 °F 1026.0 in Calm   11.3 mph 82 % 0.0 in
12:42 10.0 °F 7.1 °F 1026.0 in SE 4.8 mph 11.3 mph 82 % 0.0 in
12:47 10.1 °F 7.0 °F 1026.0 in SE 3.2 mph 9.7 mph 81 % 0.0 in
12:52 10.1 °F 7.0 °F 1026.0 in ESE 4.8 mph 9.7 mph 81 % 0.0 in
12:57 10.2 °F 7.1 °F 1026.0 in SE 8.0 mph 14.5 mph 81 % 0.0 in
13:02 10.3 °F 7.0 °F 1026.0 in SE 6.4 mph 14.5 mph 80 % 0.0 in
13:12 10.3 °F 7.2 °F 1026.0 in SE 8.0 mph 12.9 mph 81 % 0.0 in
13:17 10.4 °F 7.1 °F 1026.0 in SE 4.8 mph 12.9 mph 80 % 0.0 in
13:22 10.4 °F 7.3 °F 1026.0 in SE 1.6 mph 12.9 mph 81 % 0.0 in
13:32 10.5 °F 7.2 °F 1026.0 in SSE 4.8 mph 11.3 mph 80 % 0.0 in
13:42 10.7 °F 7.4 °F 1026.0 in SE 9.7 mph 11.3 mph 80 % 0.0 in
13:52 10.8 °F 7.3 °F 1026.0 in SE 3.2 mph 11.3 mph 79 % 0.0 in
13:57 10.9 °F 7.6 °F 1026.0 in SE 3.2 mph 14.5 mph 80 % 0.0 in
14:02 11.0 °F 7.5 °F 1026.0 in SE 4.8 mph 14.5 mph 79 % 0.0 in
14:07 11.1 °F 7.8 °F 1026.3 in ESE 4.8 mph 14.5 mph 80 % 0.0 in
14:17 11.2 °F 7.5 °F 1026.3 in SSE 6.4 mph 14.5 mph 78 % 0.0 in
14:22 11.2 °F 7.5 °F 1026.3 in SE 4.8 mph 14.5 mph 78 % 0.0 in
14:32 11.3 °F 7.6 °F 1026.3 in SE 3.2 mph 19.3 mph 78 % 0.0 in
14:37 11.3 °F 7.6 °F 1026.3 in SSE 6.4 mph 12.9 mph 78 % 0.0 in
14:47 11.4 °F 7.7 °F 1026.3 in Calm   9.7 mph 78 % 0.0 in
14:52 11.4 °F 7.9 °F 1026.6 in Calm   9.7 mph 79 % 0.0 in
14:57 11.6 °F 7.9 °F 1026.6 in SSE 3.2 mph 9.7 mph 78 % 0.0 in
15:02 11.6 °F 7.9 °F 1026.6 in SE 4.8 mph 9.7 mph 78 % 0.0 in
15:12 11.6 °F 8.1 °F 1026.6 in SE 3.2 mph 8.0 mph 79 % 0.0 in
15:17 11.7 °F 7.8 °F 1026.6 in East 4.8 mph 8.0 mph 77 % 0.0 in
15:22 11.7 °F 8.0 °F 1026.6 in Calm   6.4 mph 78 % 0.0 in
15:32 11.8 °F 8.1 °F 1026.6 in Calm   8.0 mph 78 % 0.0 in
15:42 11.9 °F 8.4 °F 1026.6 in Calm   6.4 mph 79 % 0.0 in
15:47 12.1 °F 8.4 °F 1026.6 in SE 1.6 mph 6.4 mph 78 % 0.0 in
15:52 12.2 °F 8.5 °F 1026.6 in SE 1.6 mph 3.2 mph 78 % 0.0 in
16:02 12.4 °F 8.3 °F 1027.0 in SE 1.6 mph 4.8 mph 76 % 0.0 in
16:07 12.5 °F 8.4 °F 1027.0 in Calm   3.2 mph 76 % 0.0 in
16:12 12.6 °F 8.5 °F 1027.0 in Calm   4.8 mph 76 % 0.0 in
16:17 12.7 °F 8.2 °F 1027.0 in SE 3.2 mph 4.8 mph 74 % 0.0 in
16:22 12.7 °F 8.2 °F 1027.0 in ESE 1.6 mph 8.0 mph 74 % 0.0 in
16:32 12.7 °F 8.2 °F 1027.0 in SE 1.6 mph 8.0 mph 74 % 0.0 in
16:42 12.7 °F 8.0 °F 1027.0 in SE 1.6 mph 4.8 mph 73 % 0.0 in
16:47 12.7 °F 8.4 °F 1027.0 in Calm   4.8 mph 75 % 0.0 in
16:52 12.6 °F 8.1 °F 1027.3 in ESE 1.6 mph 4.8 mph 74 % 0.0 in
16:57 12.6 °F 8.5 °F 1027.3 in Calm   3.2 mph 76 % 0.0 in
17:02 12.5 °F 8.4 °F 1027.3 in Calm   3.2 mph 76 % 0.0 in
17:07 12.5 °F 8.2 °F 1027.3 in Calm   1.6 mph 75 % 0.0 in
17:12 12.5 °F 8.2 °F 1027.3 in Calm   1.6 mph 75 % 0.0 in
17:22 12.6 °F 8.1 °F 1027.3 in Calm   1.6 mph 74 % 0.0 in
17:32 12.9 °F 7.8 °F 1027.3 in Calm   1.6 mph 71 % 0.0 in
17:42 12.8 °F 7.5 °F 1027.3 in ENE 1.6 mph 6.4 mph 70 % 0.0 in
17:52 12.6 °F 7.3 °F 1027.7 in SE 4.8 mph 6.4 mph 70 % 0.0 in
17:57 12.6 °F 7.3 °F 1027.7 in East 6.4 mph 6.4 mph 70 % 0.0 in
18:02 12.6 °F 7.3 °F 1027.7 in ENE 3.2 mph 8.0 mph 70 % 0.0 in
18:07 12.6 °F 7.1 °F 1027.7 in SE 3.2 mph 8.0 mph 69 % 0.0 in
18:17 12.5 °F 7.0 °F 1027.7 in East 3.2 mph 11.3 mph 69 % 0.0 in
18:22 12.4 °F 6.9 °F 1027.7 in ENE 4.8 mph 8.0 mph 69 % 0.0 in
18:27 12.4 °F 6.9 °F 1027.7 in East 1.6 mph 8.0 mph 69 % 0.0 in
18:32 12.4 °F 7.1 °F 1027.7 in East 3.2 mph 6.4 mph 70 % 0.0 in
18:42 12.2 °F 7.1 °F 1028.0 in SE 1.6 mph 6.4 mph 71 % 0.0 in
18:47 11.8 °F 6.9 °F 1028.0 in Calm   6.4 mph 72 % 0.0 in
18:52 11.6 °F 6.9 °F 1028.0 in Calm   6.4 mph 73 % 0.0 in
18:57 11.6 °F 6.9 °F 1028.0 in Calm   6.4 mph 73 % 0.0 in
19:02 11.8 °F 7.1 °F 1028.0 in Calm   1.6 mph 73 % 0.0 in
19:12 11.4 °F 6.9 °F 1028.0 in Calm   4.8 mph 74 % 0.0 in
19:17 11.4 °F 6.9 °F 1028.3 in Calm   4.8 mph 74 % 0.0 in
19:22 11.5 °F 7.0 °F 1028.3 in Calm   1.6 mph 74 % 0.0 in
19:32 11.6 °F 7.1 °F 1028.3 in Calm   1.6 mph 74 % 0.0 in
19:37 11.6 °F 7.1 °F 1028.3 in Calm   1.6 mph 74 % 0.0 in
19:42 11.7 °F 7.0 °F 1028.3 in Calm   1.6 mph 73 % 0.0 in
19:47 11.6 °F 6.9 °F 1028.3 in Calm   3.2 mph 73 % 0.0 in
19:52 11.3 °F 7.0 °F 1028.3 in WNW 1.6 mph 3.2 mph 75 % 0.0 in
19:57 11.2 °F 6.9 °F 1028.3 in WNW 1.6 mph 1.6 mph 75 % 0.0 in
20:02 10.9 °F 7.0 °F 1028.7 in WNW 3.2 mph 3.2 mph 77 % 0.0 in
20:12 10.9 °F 6.8 °F 1028.7 in Calm   3.2 mph 76 % 0.0 in
20:17 11.2 °F 6.9 °F 1028.7 in Calm   3.2 mph 75 % 0.0 in
20:22 11.3 °F 6.8 °F 1028.7 in Calm   3.2 mph 74 % 0.0 in
20:27 11.3 °F 6.8 °F 1028.7 in Calm   3.2 mph 74 % 0.0 in
20:32 11.3 °F 6.8 °F 1028.7 in Calm   3.2 mph 74 % 0.0 in
20:37 11.3 °F 6.8 °F 1028.7 in Calm   1.6 mph 74 % 0.0 in
20:42 11.3 °F 6.8 °F 1028.7 in Calm   1.6 mph 74 % 0.0 in
20:52 11.0 °F 6.5 °F 1028.7 in East 1.6 mph 1.6 mph 74 % 0.0 in
20:57 10.8 °F 6.5 °F 1028.7 in Calm   3.2 mph 75 % 0.0 in
21:02 10.7 °F 6.4 °F 1029.0 in Calm   4.8 mph 75 % 0.0 in
21:12 10.4 °F 6.4 °F 1029.0 in Calm   4.8 mph 76 % 0.0 in
21:22 10.4 °F 6.4 °F 1029.0 in Calm   3.2 mph 76 % 0.0 in
21:27 10.4 °F 6.4 °F 1029.0 in Calm   3.2 mph 76 % 0.0 in
21:32 10.4 °F 6.4 °F 1029.0 in Calm   3.2 mph 76 % 0.0 in
21:37 10.4 °F 6.4 °F 1029.3 in Calm   3.2 mph 76 % 0.0 in
21:42 10.4 °F 6.4 °F 1029.3 in NE 1.6 mph 3.2 mph 76 % 0.0 in
21:47 10.4 °F 6.4 °F 1029.3 in Calm   3.2 mph 76 % 0.0 in
21:52 10.4 °F 6.4 °F 1029.3 in Calm   1.6 mph 76 % 0.0 in
22:02 10.2 °F 6.2 °F 1029.3 in Calm   1.6 mph 76 % 0.0 in
22:12 9.9 °F 6.1 °F 1029.3 in Calm   6.4 mph 77 % 0.0 in
22:17 9.7 °F 6.0 °F 1029.3 in Calm   6.4 mph 78 % 0.0 in
22:22 9.6 °F 6.1 °F 1029.7 in ENE 1.6 mph 6.4 mph 79 % 0.0 in
22:27 9.6 °F 6.1 °F 1029.7 in Calm   3.2 mph 79 % 0.0 in
22:32 9.5 °F 6.0 °F 1029.7 in Calm   4.8 mph 79 % 0.0 in
22:37 9.6 °F 6.1 °F 1029.7 in Calm   4.8 mph 79 % 0.0 in
22:42 9.6 °F 6.1 °F 1029.7 in ENE 1.6 mph 4.8 mph 79 % 0.0 in
22:47 9.6 °F 6.1 °F 1029.7 in Calm   3.2 mph 79 % 0.0 in
22:52 9.7 °F 6.0 °F 1029.7 in Calm   3.2 mph 78 % 0.0 in
23:02 9.7 °F 6.0 °F 1029.7 in Calm   1.6 mph 78 % 0.0 in
23:07 9.6 °F 6.1 °F 1030.0 in Calm   1.6 mph 79 % 0.0 in
23:12 9.4 °F 5.9 °F 1029.7 in Calm   1.6 mph 79 % 0.0 in
23:17 9.4 °F 5.9 °F 1030.0 in Calm     79 % 0.0 in
23:22 9.3 °F 6.0 °F 1029.7 in Calm     80 % 0.0 in
23:27 9.3 °F 6.0 °F 1030.0 in Calm   1.6 mph 80 % 0.0 in
23:32 9.4 °F 6.1 °F 1030.0 in Calm   1.6 mph 80 % 0.0 in
23:37 9.5 °F 6.0 °F 1030.0 in Calm   4.8 mph 79 % 0.0 in
23:42 9.6 °F 6.1 °F 1030.0 in ESE 1.6 mph 4.8 mph 79 % 0.0 in
23:47 9.5 °F 6.0 °F 1030.0 in Calm   4.8 mph 79 % 0.0 in
23:57 9.3 °F 6.0 °F 1030.0 in Calm   6.4 mph 80 % 0.0 in
Meteo18
Compliments of Weather Underground - 4 mb

Script developed by  Jim McMurry - jmcmurry@mwt.net Adapted for the template by  Wim van der Kuil - Leuven-Template.eu

You find our weather info also at:

European Weather Network

Weather Underground

Equipment we use:

Weather-station
Davis Vue

Weather-program
Meteobridge

Weather-server
Raspberry PI 2 B+

Provider
1 and 1

Davis Vue

Meteobridge

Raspberry PI 2 B+

1 and 1